createdAt,value
2018-06-11T00:00:08.846Z,17.40
2018-06-11T00:01:13.122Z,18.73
2018-06-11T00:02:17.415Z,17.02
2018-06-11T00:03:21.095Z,16.67
2018-06-11T00:04:25.464Z,18.50
2018-06-11T00:05:29.744Z,18.30
2018-06-11T00:06:33.985Z,19.60
2018-06-11T00:07:38.223Z,19.40
2018-06-11T00:08:43.307Z,18.52
2018-06-11T00:09:47.437Z,19.75
2018-06-11T00:10:51.623Z,18.27
2018-06-11T00:11:56.003Z,19.25
2018-06-11T00:13:00.155Z,17.90
2018-06-11T00:14:04.341Z,18.95
2018-06-11T00:15:08.811Z,18.27
2018-06-11T00:16:13.530Z,19.98
2018-06-11T00:17:17.733Z,18.92
2018-06-11T00:18:21.915Z,18.70
2018-06-11T00:19:25.999Z,16.62
2018-06-11T00:20:30.285Z,18.57
2018-06-11T00:21:34.519Z,18.90
2018-06-11T00:22:38.650Z,18.95
2018-06-11T00:23:42.355Z,19.37
2018-06-11T00:24:46.539Z,19.00
2018-06-11T00:25:50.863Z,19.45
2018-06-11T00:26:55.641Z,18.55
2018-06-11T00:28:00.639Z,20.05
2018-06-11T00:29:04.889Z,19.70
2018-06-11T00:30:08.985Z,20.40
2018-06-11T00:31:13.936Z,19.95
2018-06-11T00:32:37.259Z,19.70
2018-06-11T00:33:41.532Z,19.60
2018-06-11T00:34:46.371Z,19.67
2018-06-11T00:35:50.642Z,19.07
2018-06-11T00:36:54.718Z,19.87
2018-06-11T00:37:58.854Z,20.88
2018-06-11T00:39:03.910Z,19.80
2018-06-11T00:40:08.207Z,19.80
2018-06-11T00:41:12.355Z,20.85
2018-06-11T00:42:16.499Z,21.65
2018-06-11T00:43:21.485Z,21.77
2018-06-11T00:44:25.945Z,20.55
2018-06-11T00:45:30.307Z,20.72
2018-06-11T00:46:34.684Z,21.07
2018-06-11T00:47:39.358Z,23.50
2018-06-11T00:48:43.793Z,22.15
2018-06-11T00:49:48.684Z,22.35
2018-06-11T00:50:53.087Z,22.55
2018-06-11T00:51:57.533Z,23.40
2018-06-11T00:53:01.970Z,23.47
2018-06-11T00:54:06.774Z,23.57
2018-06-11T00:55:11.398Z,22.85
2018-06-11T00:56:15.571Z,22.25
2018-06-11T00:57:19.692Z,23.60
2018-06-11T00:58:24.018Z,24.72
2018-06-11T00:59:28.185Z,23.67
2018-06-11T01:00:32.419Z,24.45
2018-06-11T01:01:37.253Z,24.15
2018-06-11T01:02:41.848Z,26.07
2018-06-11T01:03:46.266Z,26.60
2018-06-11T01:04:51.104Z,25.32
2018-06-11T01:05:55.742Z,23.83
2018-06-11T01:07:00.137Z,23.47
2018-06-11T01:08:07.324Z,26.57
2018-06-11T01:09:11.814Z,25.35
2018-06-11T01:10:16.212Z,25.20
2018-06-11T01:11:20.620Z,26.50
2018-06-11T01:12:25.070Z,23.65
2018-06-11T01:13:30.333Z,26.37
2018-06-11T01:14:35.115Z,25.45
2018-06-11T01:15:39.655Z,24.27
2018-06-11T01:16:44.021Z,25.25
2018-06-11T01:17:48.496Z,23.62
2018-06-11T01:18:52.918Z,25.90
2018-06-11T01:19:57.722Z,26.07
2018-06-11T01:21:02.263Z,25.90
2018-06-11T01:22:06.396Z,25.40
2018-06-11T01:23:10.578Z,24.43
2018-06-11T01:24:14.750Z,26.02
2018-06-11T01:25:18.932Z,25.82
2018-06-11T01:26:23.706Z,26.33
2018-06-11T01:27:27.936Z,25.90
2018-06-11T01:28:32.106Z,26.87
2018-06-11T01:29:36.186Z,25.55
2018-06-11T01:30:40.526Z,26.20
2018-06-11T01:31:45.036Z,27.22
2018-06-11T01:32:49.220Z,26.23
2018-06-11T01:33:53.701Z,26.50
2018-06-11T01:34:58.419Z,28.05
2018-06-11T01:36:03.613Z,25.70
2018-06-11T01:37:07.576Z,25.95
2018-06-11T01:38:12.328Z,26.02
2018-06-11T01:39:16.877Z,27.60
2018-06-11T01:40:21.232Z,27.00
2018-06-11T01:41:25.701Z,27.32
2018-06-11T01:42:30.065Z,27.42
2018-06-11T01:43:34.871Z,26.30
2018-06-11T01:44:39.742Z,27.05
2018-06-11T01:45:44.167Z,27.32
2018-06-11T01:46:48.511Z,28.27
2018-06-11T01:48:55.895Z,27.62
2018-06-11T01:50:00.292Z,26.70
2018-06-11T01:51:04.493Z,27.40
2018-06-11T01:52:08.851Z,28.25
2018-06-11T01:53:13.092Z,26.42
2018-06-11T01:54:17.394Z,27.60
2018-06-11T01:55:21.516Z,26.70
2018-06-11T01:56:25.744Z,27.22
2018-06-11T01:57:29.875Z,26.40
2018-06-11T01:58:34.272Z,26.60
2018-06-11T01:59:38.769Z,27.05
2018-06-11T02:00:43.127Z,28.02
2018-06-11T02:01:47.769Z,27.67
2018-06-11T02:02:52.119Z,28.32
2018-06-11T02:03:56.827Z,28.87
2018-06-11T02:05:01.011Z,29.15
2018-06-11T02:06:05.111Z,27.62
2018-06-11T02:07:09.315Z,29.30
2018-06-11T02:08:13.594Z,26.70
2018-06-11T02:09:18.472Z,27.50
2018-06-11T02:10:22.644Z,28.15
2018-06-11T02:11:26.888Z,27.93
2018-06-11T02:12:30.574Z,29.50
2018-06-11T02:13:34.895Z,27.82
2018-06-11T02:16:35.661Z,28.17
2018-06-11T02:17:39.814Z,29.02
2018-06-11T02:18:43.928Z,27.87
2018-06-11T02:19:48.003Z,29.77
2018-06-11T02:20:52.315Z,28.80
2018-06-11T02:21:56.663Z,26.90
2018-06-11T02:23:01.001Z,28.35
2018-06-11T02:24:05.204Z,29.07
2018-06-11T02:25:09.512Z,29.02
2018-06-11T02:26:13.675Z,29.23
2018-06-11T02:27:17.323Z,29.82
2018-06-11T02:28:21.675Z,28.05
2018-06-11T02:29:26.025Z,28.65
2018-06-11T02:30:30.602Z,29.20
2018-06-11T02:31:35.203Z,28.50
2018-06-11T02:32:40.020Z,29.32
2018-06-11T02:33:44.499Z,31.02
2018-06-11T02:34:48.850Z,30.70
2018-06-11T02:35:53.262Z,28.85
2018-06-11T02:36:57.081Z,29.60
2018-06-11T02:38:01.228Z,30.65
2018-06-11T02:39:08.370Z,31.27
2018-06-11T02:40:12.523Z,29.77
2018-06-11T02:41:16.847Z,30.80
2018-06-11T02:42:20.583Z,29.45
2018-06-11T02:43:25.040Z,28.60
2018-06-11T02:44:29.406Z,28.77
2018-06-11T02:45:34.174Z,30.88
2018-06-11T02:46:38.517Z,30.88
2018-06-11T02:47:42.867Z,28.25
2018-06-11T02:48:47.142Z,29.85
2018-06-11T02:49:51.270Z,29.00
2018-06-11T02:50:55.773Z,29.67
2018-06-11T02:52:00.127Z,30.92
2018-06-11T02:53:04.213Z,31.30
2018-06-11T02:54:07.866Z,31.02
2018-06-11T02:55:12.339Z,31.27
2018-06-11T02:56:16.695Z,30.50
2018-06-11T02:57:21.564Z,30.75
2018-06-11T02:58:26.072Z,30.90
2018-06-11T02:59:30.594Z,30.85
2018-06-11T03:00:35.099Z,31.15
2018-06-11T03:01:39.592Z,32.13
2018-06-11T03:02:43.719Z,30.57
2018-06-11T03:03:48.441Z,30.12
2018-06-11T03:04:52.572Z,31.12
2018-06-11T03:05:56.740Z,32.80
2018-06-11T03:07:01.044Z,33.88
2018-06-11T03:08:05.557Z,31.30
2018-06-11T03:09:10.216Z,31.20
2018-06-11T03:10:14.583Z,31.87
2018-06-11T03:11:18.753Z,33.98
2018-06-11T03:12:23.452Z,32.85
2018-06-11T03:13:28.163Z,30.90
2018-06-11T03:14:32.572Z,32.90
2018-06-11T03:15:37.477Z,34.70
2018-06-11T03:16:41.989Z,32.63
2018-06-11T03:17:46.447Z,31.57
2018-06-11T03:18:51.088Z,33.70
2018-06-11T03:19:55.450Z,32.48
2018-06-11T03:21:00.118Z,35.40
2018-06-11T03:22:04.924Z,33.40
2018-06-11T03:23:09.376Z,33.28
2018-06-11T03:24:13.604Z,35.75
2018-06-11T03:25:21.749Z,34.40
2018-06-11T03:26:26.248Z,33.95
2018-06-11T03:27:30.870Z,34.03
2018-06-11T03:28:35.183Z,34.10
2018-06-11T03:29:39.436Z,34.90
2018-06-11T03:30:43.520Z,35.35
2018-06-11T03:31:49.256Z,35.98
2018-06-11T03:32:53.626Z,34.85
2018-06-11T03:33:58.614Z,35.55
2018-06-11T03:35:03.426Z,35.60
2018-06-11T03:36:07.975Z,35.78
2018-06-11T03:37:12.316Z,35.90
2018-06-11T03:38:17.641Z,35.55
2018-06-11T03:39:22.032Z,35.85
2018-06-11T03:40:26.464Z,34.95
2018-06-11T03:41:31.085Z,35.95
2018-06-11T03:42:35.471Z,37.75
2018-06-11T03:43:40.009Z,34.70
2018-06-11T03:44:44.518Z,34.23
2018-06-11T03:45:48.902Z,37.58
2018-06-11T03:46:53.284Z,36.28
2018-06-11T03:47:57.858Z,37.40
2018-06-11T03:49:02.315Z,34.50
2018-06-11T03:50:06.581Z,36.60
2018-06-11T03:51:10.942Z,34.83
2018-06-11T03:52:15.025Z,36.55
2018-06-11T03:53:19.151Z,34.00
2018-06-11T03:54:23.260Z,35.68
2018-06-11T03:55:27.685Z,35.30
2018-06-11T03:56:32.276Z,35.68
2018-06-11T03:57:36.640Z,36.23
2018-06-11T03:58:41.015Z,35.75
2018-06-11T03:59:45.344Z,36.70
2018-06-11T04:00:49.247Z,35.90
2018-06-11T04:01:53.712Z,36.00
2018-06-11T04:02:58.132Z,33.78
2018-06-11T04:04:02.655Z,35.00
2018-06-11T04:05:06.841Z,36.65
2018-06-11T04:06:10.577Z,35.45
2018-06-11T04:07:14.716Z,36.05
2018-06-11T04:08:19.144Z,37.10
2018-06-11T04:09:23.481Z,36.10
2018-06-11T04:10:28.238Z,36.33
2018-06-11T04:11:32.626Z,38.30
2018-06-11T04:12:36.898Z,33.70
2018-06-11T04:13:41.245Z,34.67
2018-06-11T04:14:49.932Z,36.20
2018-06-11T04:15:54.792Z,34.05
2018-06-11T04:16:58.968Z,36.60
2018-06-11T04:18:03.199Z,35.90
2018-06-11T04:19:07.599Z,35.58
2018-06-11T04:20:12.871Z,36.08
2018-06-11T04:21:17.079Z,34.25
2018-06-11T04:22:21.317Z,34.80
2018-06-11T04:23:25.484Z,36.50
2018-06-11T04:24:29.641Z,36.58
2018-06-11T04:25:33.852Z,34.67
2018-06-11T04:26:37.956Z,34.83
2018-06-11T04:27:42.276Z,34.20
2018-06-11T04:28:46.615Z,35.70
2018-06-11T04:29:51.127Z,34.00
2018-06-11T04:30:55.589Z,36.68
2018-06-11T04:32:00.044Z,34.43
2018-06-11T04:33:04.726Z,37.73
2018-06-11T04:34:08.587Z,32.45
2018-06-11T04:35:12.973Z,34.15
2018-06-11T04:36:17.346Z,33.83
2018-06-11T04:37:21.790Z,35.10
2018-06-11T04:38:26.300Z,35.80
2018-06-11T04:39:30.680Z,35.23
2018-06-11T04:40:35.171Z,34.43
2018-06-11T04:41:39.563Z,34.95
2018-06-11T04:42:43.980Z,34.13
2018-06-11T04:43:48.371Z,32.73
2018-06-11T04:44:53.039Z,33.42
2018-06-11T04:45:57.405Z,34.38
2018-06-11T04:47:01.990Z,35.85
2018-06-11T04:48:06.451Z,36.28
2018-06-11T04:49:10.318Z,35.38
2018-06-11T04:50:14.699Z,34.92
2018-06-11T04:51:19.066Z,34.70
2018-06-11T04:52:23.474Z,35.48
2018-06-11T04:53:27.866Z,33.23
2018-06-11T04:54:32.384Z,33.98
2018-06-11T04:55:36.824Z,33.67
2018-06-11T04:56:40.623Z,34.35
2018-06-11T04:57:45.133Z,35.28
2018-06-11T04:58:49.294Z,35.58
2018-06-11T04:59:53.503Z,37.23
2018-06-11T05:00:57.680Z,34.27
2018-06-11T05:02:01.913Z,35.35
2018-06-11T05:03:06.113Z,34.08
2018-06-11T05:04:10.327Z,35.38
2018-06-11T05:05:14.501Z,36.10
2018-06-11T05:06:18.641Z,36.38
2018-06-11T05:07:22.766Z,33.80
2018-06-11T05:08:26.972Z,34.92
2018-06-11T05:09:31.174Z,33.30
2018-06-11T05:10:35.335Z,34.60
2018-06-11T05:11:39.525Z,33.50
2018-06-11T05:12:43.897Z,35.17
2018-06-11T05:13:48.095Z,34.27
2018-06-11T05:14:52.314Z,36.45
2018-06-11T05:15:56.532Z,33.98
2018-06-11T05:17:02.331Z,33.60
2018-06-11T05:18:06.710Z,33.78
2018-06-11T05:19:10.975Z,33.38
2018-06-11T05:20:15.229Z,33.23
2018-06-11T05:21:19.554Z,34.78
2018-06-11T05:22:23.816Z,35.25
2018-06-11T05:23:28.245Z,34.20
2018-06-11T05:24:32.663Z,35.03
2018-06-11T05:25:38.905Z,36.10
2018-06-11T05:26:43.380Z,34.78
2018-06-11T05:27:47.838Z,35.33
2018-06-11T05:28:52.597Z,32.45
2018-06-11T05:29:57.110Z,35.28
2018-06-11T05:31:01.937Z,34.88
2018-06-11T05:32:06.482Z,34.92
2018-06-11T05:33:11.066Z,34.65
2018-06-11T05:34:15.537Z,34.78
2018-06-11T05:35:20.382Z,32.23
2018-06-11T05:36:24.691Z,34.53
2018-06-11T05:37:29.647Z,33.20
2018-06-11T05:38:34.164Z,34.78
2018-06-11T05:39:38.540Z,34.20
2018-06-11T05:40:50.117Z,32.38
2018-06-11T05:41:54.587Z,33.28
2018-06-11T05:42:59.140Z,35.43
2018-06-11T05:44:03.633Z,35.58
2018-06-11T05:45:08.078Z,33.65
2018-06-11T05:46:13.107Z,34.70
2018-06-11T05:47:17.400Z,32.88
2018-06-11T05:48:21.875Z,30.72
2018-06-11T05:49:26.155Z,34.27
2018-06-11T05:50:30.428Z,33.35
2018-06-11T05:51:35.074Z,30.97
2018-06-11T05:52:39.449Z,33.10
2018-06-11T05:53:43.662Z,33.42
2018-06-11T05:54:47.862Z,31.45
2018-06-11T05:55:52.387Z,31.42
2018-06-11T05:56:57.299Z,32.85
2018-06-11T05:58:02.628Z,31.35
2018-06-11T05:59:07.063Z,32.05
2018-06-11T06:00:11.635Z,31.87
2018-06-11T06:01:16.124Z,30.00
2018-06-11T06:02:20.837Z,34.00
2018-06-11T06:03:25.787Z,30.77
2018-06-11T06:04:30.272Z,30.95
2018-06-11T06:05:34.719Z,30.82
2018-06-11T06:06:39.217Z,31.42
2018-06-11T06:07:43.595Z,31.77
2018-06-11T06:08:48.084Z,31.15
2018-06-11T06:09:52.913Z,31.95
2018-06-11T06:10:57.401Z,38.90
2018-06-11T06:12:01.280Z,30.02
2018-06-11T06:13:05.900Z,30.05
2018-06-11T06:14:12.382Z,29.95
2018-06-11T06:15:20.548Z,29.40
2018-06-11T06:16:28.014Z,31.77
2018-06-11T06:17:32.886Z,31.48
2018-06-11T06:18:37.036Z,30.32
2018-06-11T06:19:41.280Z,32.35
2018-06-11T06:20:45.686Z,30.97
2018-06-11T06:23:33.583Z,30.20
2018-06-11T06:24:37.929Z,28.55
2018-06-11T06:25:42.178Z,31.65
2018-06-11T06:26:46.426Z,29.25
2018-06-11T06:27:50.734Z,30.65
2018-06-11T06:28:55.037Z,29.67
2018-06-11T06:29:59.340Z,31.75
2018-06-11T06:31:03.515Z,29.67
2018-06-11T06:32:07.907Z,30.10
2018-06-11T06:33:12.026Z,29.23
2018-06-11T06:34:17.015Z,31.00
2018-06-11T06:35:21.176Z,31.93
2018-06-11T06:36:25.931Z,30.55
2018-06-11T06:37:30.556Z,32.88
2018-06-11T06:38:34.995Z,30.88
2018-06-11T06:39:39.510Z,30.37
2018-06-11T06:40:44.386Z,30.25
2018-06-11T06:41:49.110Z,30.17
2018-06-11T06:42:53.657Z,32.55
2018-06-11T06:43:59.331Z,31.80
2018-06-11T06:45:04.061Z,30.97
2018-06-11T06:46:09.331Z,30.35
2018-06-11T06:47:14.078Z,31.00
2018-06-11T06:48:17.923Z,29.25
2018-06-11T06:49:22.844Z,32.65
2018-06-11T06:50:28.256Z,29.60
2018-06-11T06:51:34.208Z,29.65
2018-06-11T06:52:41.052Z,29.45
2018-06-11T06:53:45.575Z,29.45
2018-06-11T06:54:50.015Z,30.40
2018-06-11T06:55:54.321Z,32.15
2018-06-11T06:56:58.612Z,30.62
2018-06-11T06:58:02.976Z,31.07
2018-06-11T06:59:07.188Z,29.57
2018-06-11T07:00:11.441Z,29.77
2018-06-11T07:01:15.655Z,28.35
2018-06-11T07:02:19.947Z,26.62
2018-06-11T07:03:24.180Z,28.83
2018-06-11T07:04:28.778Z,28.90
2018-06-11T07:05:33.350Z,28.32
2018-06-11T07:06:37.599Z,29.98
2018-06-11T07:07:41.915Z,28.98
2018-06-11T07:08:46.274Z,29.00
2018-06-11T07:09:50.528Z,31.42
2018-06-11T07:10:55.110Z,28.20
2018-06-11T07:11:59.475Z,28.70
2018-06-11T07:13:03.721Z,27.75
2018-06-11T07:14:08.277Z,26.55
2018-06-11T07:15:12.726Z,27.25
2018-06-11T07:16:17.452Z,28.90
2018-06-11T07:17:22.541Z,27.45
2018-06-11T07:18:27.039Z,27.65
2018-06-11T07:19:31.595Z,28.42
2018-06-11T07:20:36.016Z,29.60
2018-06-11T07:21:40.598Z,29.25
2018-06-11T07:22:46.403Z,29.20
2018-06-11T07:23:50.903Z,27.87
2018-06-11T07:24:55.718Z,28.95
2018-06-11T07:26:00.349Z,27.25
2018-06-11T07:27:05.243Z,28.27
2018-06-11T07:28:09.706Z,28.45
2018-06-11T07:29:14.507Z,28.25
2018-06-11T07:30:19.255Z,28.23
2018-06-11T07:31:24.211Z,27.70
2018-06-11T07:32:28.887Z,26.90
2018-06-11T07:33:33.299Z,28.02
2018-06-11T07:34:37.635Z,28.35
2018-06-11T07:35:42.004Z,26.15
2018-06-11T07:36:46.361Z,27.85
2018-06-11T07:37:50.659Z,26.70
2018-06-11T07:38:54.897Z,26.70
2018-06-11T07:39:59.201Z,26.68
2018-06-11T07:41:03.935Z,25.43
2018-06-11T07:42:08.232Z,24.35
2018-06-11T07:43:12.641Z,25.10
2018-06-11T07:44:17.086Z,24.50
2018-06-11T07:45:21.683Z,27.85
2018-06-11T07:46:25.947Z,24.92
2018-06-11T07:47:30.648Z,25.50
2018-06-11T07:48:35.032Z,25.97
2018-06-11T07:49:39.201Z,25.17
2018-06-11T07:50:43.370Z,25.25
2018-06-11T07:51:48.021Z,25.25
2018-06-11T07:52:52.636Z,27.25
2018-06-11T07:53:57.084Z,25.32
2018-06-11T07:55:01.516Z,22.87
2018-06-11T07:56:06.354Z,23.90
2018-06-11T07:57:10.823Z,25.48
2018-06-11T07:58:15.240Z,24.20
2018-06-11T07:59:21.251Z,23.73
2018-06-11T08:00:25.717Z,25.25
2018-06-11T08:01:29.608Z,29.02
2018-06-11T08:02:34.215Z,24.47
2018-06-11T08:03:38.668Z,25.48
2018-06-11T08:04:43.231Z,28.75
2018-06-11T08:05:47.941Z,25.23
2018-06-11T08:06:52.756Z,26.23
2018-06-11T08:07:57.229Z,23.00
2018-06-11T08:09:01.739Z,23.75
2018-06-11T08:10:06.422Z,22.35
2018-06-11T08:11:10.909Z,24.55
2018-06-11T08:12:15.429Z,24.10
2018-06-11T08:13:20.079Z,24.47
2018-06-11T08:14:24.491Z,24.72
2018-06-11T08:15:28.944Z,25.17
2018-06-11T08:16:33.404Z,22.65
2018-06-11T08:17:38.134Z,24.82
2018-06-11T08:18:42.597Z,22.67
2018-06-11T08:19:47.264Z,22.77
2018-06-11T08:20:52.079Z,23.20
2018-06-11T08:21:56.526Z,23.77
2018-06-11T08:23:01.161Z,22.98
2018-06-11T08:24:06.105Z,21.85
2018-06-11T08:25:10.737Z,21.20
2018-06-11T08:26:15.219Z,24.67
2018-06-11T08:27:19.974Z,21.17
2018-06-11T08:28:24.450Z,22.75
2018-06-11T08:29:29.980Z,24.15
2018-06-11T08:30:34.751Z,25.80
2018-06-11T08:31:39.310Z,23.77
2018-06-11T08:32:44.662Z,24.20
2018-06-11T08:33:49.667Z,20.05
2018-06-11T08:34:54.308Z,27.25
2018-06-11T08:36:00.361Z,22.48
2018-06-11T08:37:04.265Z,22.50
2018-06-11T08:38:08.131Z,19.95
2018-06-11T08:39:12.589Z,20.57
2018-06-11T08:40:17.277Z,22.60
2018-06-11T08:41:21.775Z,21.93
2018-06-11T08:42:26.293Z,19.25
2018-06-11T08:43:31.294Z,21.17
2018-06-11T08:44:35.830Z,20.15
2018-06-11T08:45:40.342Z,20.27
2018-06-11T08:46:44.767Z,20.45
2018-06-11T08:47:49.365Z,21.55
2018-06-11T08:48:53.819Z,20.97
2018-06-11T08:49:58.312Z,20.80
2018-06-11T08:51:02.897Z,20.20
2018-06-11T08:52:07.411Z,22.48
2018-06-11T08:53:11.935Z,21.70
2018-06-11T08:54:16.758Z,22.35
2018-06-11T08:55:21.404Z,26.15
2018-06-11T08:56:26.021Z,22.35
2018-06-11T08:57:30.532Z,23.92
2018-06-11T08:58:35.155Z,20.25
2018-06-11T08:59:39.614Z,21.30
2018-06-11T09:00:44.537Z,20.27
2018-06-11T09:01:48.422Z,18.98
2018-06-11T09:02:52.936Z,21.02
2018-06-11T09:03:57.355Z,19.37
2018-06-11T09:05:01.953Z,20.72
2018-06-11T09:06:06.749Z,19.87
2018-06-11T09:07:11.303Z,17.55
2018-06-11T09:08:15.756Z,17.45
2018-06-11T09:09:20.383Z,16.48
2018-06-11T09:10:24.949Z,18.62
2018-06-11T09:11:29.663Z,16.75
2018-06-11T09:12:34.220Z,19.20
2018-06-11T09:13:38.675Z,17.32
2018-06-11T09:14:43.414Z,16.20
2018-06-11T09:15:47.865Z,18.17
2018-06-11T09:16:52.443Z,23.00
2018-06-11T09:17:56.870Z,25.15
2018-06-11T09:19:01.293Z,23.52
2018-06-11T09:20:05.553Z,18.52
2018-06-11T09:21:09.846Z,18.30
2018-06-11T09:22:14.528Z,20.40
2018-06-11T09:23:18.899Z,19.62
2018-06-11T09:24:23.729Z,21.65
2018-06-11T09:25:28.006Z,20.68
2018-06-11T09:26:32.568Z,19.48
2018-06-11T09:27:37.042Z,19.20
2018-06-11T09:28:41.504Z,18.57
2018-06-11T09:29:46.053Z,21.15
2018-06-11T09:30:50.886Z,20.20
2018-06-11T09:31:55.456Z,18.75
2018-06-11T09:33:00.013Z,18.35
2018-06-11T09:34:04.643Z,20.15
2018-06-11T09:35:09.551Z,19.17
2018-06-11T09:36:14.147Z,18.30
2018-06-11T09:37:18.979Z,20.05
2018-06-11T09:38:23.582Z,19.75
2018-06-11T09:39:28.110Z,19.07
2018-06-11T09:40:32.701Z,19.70
2018-06-11T09:41:37.577Z,17.45
2018-06-11T09:42:42.372Z,17.37
2018-06-11T09:43:47.033Z,17.77
2018-06-11T09:44:51.545Z,18.92
2018-06-11T09:45:56.044Z,18.87
2018-06-11T09:47:00.575Z,18.50
2018-06-11T09:48:05.093Z,18.95
2018-06-11T09:49:09.949Z,18.10
2018-06-11T09:50:14.468Z,19.15
2018-06-11T09:51:18.358Z,18.92
2018-06-11T09:52:22.984Z,19.70
2018-06-11T09:53:27.187Z,18.75
2018-06-11T09:54:31.555Z,19.27
2018-06-11T09:55:36.230Z,18.77
2018-06-11T09:56:40.417Z,17.80
2018-06-11T09:57:44.715Z,18.98
2018-06-11T09:58:50.126Z,20.12
2018-06-11T09:59:54.312Z,18.40
2018-06-11T10:00:59.412Z,20.10
2018-06-11T10:02:03.289Z,18.45
2018-06-11T10:03:08.026Z,18.48
2018-06-11T10:04:12.568Z,19.25
2018-06-11T10:05:17.040Z,18.67
2018-06-11T10:06:21.756Z,20.85
2018-06-11T10:07:26.614Z,18.90
2018-06-11T10:08:31.174Z,19.45
2018-06-11T10:09:36.351Z,19.00
2018-06-11T10:10:41.542Z,20.30
2018-06-11T10:11:46.397Z,19.60
2018-06-11T10:12:51.276Z,18.65
2018-06-11T10:13:56.048Z,18.07
2018-06-11T10:15:00.515Z,17.62
2018-06-11T10:16:04.326Z,20.55
2018-06-11T10:17:08.844Z,18.57
2018-06-11T10:18:13.457Z,19.02
2018-06-11T10:19:18.209Z,19.50
2018-06-11T10:20:23.222Z,18.02
2018-06-11T10:21:27.999Z,20.20
2018-06-11T10:22:35.586Z,20.70
2018-06-11T10:23:40.591Z,19.20
2018-06-11T10:24:45.162Z,18.87
2018-06-11T10:25:50.443Z,19.20
2018-06-11T10:26:54.903Z,19.52
2018-06-11T10:27:59.523Z,18.25
2018-06-11T10:29:04.032Z,20.60
2018-06-11T10:30:08.614Z,16.87
2018-06-11T10:31:13.724Z,20.30
2018-06-11T10:32:18.353Z,18.90
2018-06-11T10:33:22.958Z,17.45
2018-06-11T10:34:27.622Z,17.73
2018-06-11T10:35:31.863Z,19.07
2018-06-11T10:36:36.275Z,17.27
2018-06-11T10:37:40.917Z,18.90
2018-06-11T10:38:45.257Z,17.98
2018-06-11T10:39:49.503Z,18.25
2018-06-11T10:40:56.079Z,18.57
2018-06-11T10:42:00.385Z,17.45
2018-06-11T10:43:05.227Z,19.37
2018-06-11T10:44:10.080Z,23.12
2018-06-11T10:45:14.866Z,23.00
2018-06-11T10:46:19.343Z,22.20
2018-06-11T10:47:23.824Z,24.87
2018-06-11T10:48:28.294Z,18.57
2018-06-11T10:49:32.747Z,16.55
2018-06-11T10:50:36.990Z,16.75
2018-06-11T10:51:43.261Z,17.57
2018-06-11T10:52:48.405Z,16.10
2018-06-11T10:53:53.254Z,17.00
2018-06-11T10:54:58.980Z,15.72
2018-06-11T10:56:03.484Z,15.32
2018-06-11T10:57:25.116Z,15.65
2018-06-11T10:58:36.862Z,15.80
2018-06-11T11:02:05.123Z,16.37
2018-06-11T11:03:52.144Z,15.83
2018-06-11T11:06:25.504Z,15.68
2018-06-11T11:07:30.174Z,17.27
2018-06-11T11:08:36.091Z,14.30
2018-06-11T11:09:42.568Z,20.48
2018-06-11T11:10:50.689Z,15.93
2018-06-11T11:11:56.147Z,14.33
2018-06-11T11:13:04.335Z,17.55
2018-06-11T11:14:10.392Z,14.83
2018-06-11T11:15:17.921Z,12.95
2018-06-11T11:16:22.395Z,12.15
2018-06-11T11:17:26.859Z,12.88
2018-06-11T11:18:31.274Z,11.93
2018-06-11T11:19:36.413Z,12.50
2018-06-11T11:20:41.811Z,12.37
2018-06-11T11:21:47.099Z,11.80
2018-06-11T11:22:55.040Z,9.73
2018-06-11T11:24:00.085Z,11.45
2018-06-11T11:25:08.519Z,11.83
2018-06-11T11:26:16.257Z,10.65
2018-06-11T11:27:20.503Z,10.13
2018-06-11T11:28:27.140Z,10.20
2018-06-11T11:29:31.798Z,11.65
2018-06-11T11:30:49.119Z,10.48
2018-06-11T11:32:19.098Z,10.08
2018-06-11T11:33:33.485Z,9.68
2018-06-11T11:34:38.229Z,9.60
2018-06-11T11:35:42.487Z,8.80
2018-06-11T11:36:46.833Z,8.95
2018-06-11T11:37:52.272Z,9.58
2018-06-11T11:38:57.054Z,8.03
2018-06-11T11:40:01.733Z,8.73
2018-06-11T11:41:07.311Z,9.23
2018-06-11T11:42:39.204Z,8.40
2018-06-11T11:43:44.015Z,9.33
2018-06-11T11:44:57.853Z,9.55
2018-06-11T11:46:03.738Z,10.03
2018-06-11T11:47:09.447Z,8.10
2018-06-11T11:48:13.233Z,9.08
2018-06-11T11:49:17.961Z,8.05
2018-06-11T11:50:33.351Z,9.03
2018-06-11T11:51:41.129Z,9.18
2018-06-11T11:52:45.542Z,9.20
2018-06-11T11:53:49.953Z,8.40
2018-06-11T11:54:54.443Z,8.25
2018-06-11T11:55:59.048Z,9.25
2018-06-11T11:57:04.133Z,9.23
2018-06-11T11:58:08.912Z,9.33
2018-06-11T11:59:12.813Z,8.25
2018-06-11T12:00:17.325Z,9.55
2018-06-11T12:01:22.473Z,8.50
2018-06-11T12:02:27.156Z,8.43
2018-06-11T12:03:31.901Z,7.12
2018-06-11T12:04:36.710Z,7.33
2018-06-11T12:05:40.713Z,8.38
2018-06-11T12:06:45.525Z,8.90
2018-06-11T12:07:49.415Z,7.97
2018-06-11T12:08:54.220Z,7.53
2018-06-11T12:09:59.164Z,7.53
2018-06-11T12:11:03.894Z,7.97
2018-06-11T12:12:09.056Z,7.95
2018-06-11T12:13:14.011Z,8.20
2018-06-11T12:14:18.586Z,6.55
2018-06-11T12:15:23.115Z,7.78
2018-06-11T12:16:29.029Z,6.65
2018-06-11T12:17:33.645Z,8.40
2018-06-11T12:18:38.367Z,8.15
2018-06-11T12:19:42.854Z,7.33
2018-06-11T12:20:47.499Z,6.90
2018-06-11T12:21:52.688Z,6.75
2018-06-11T12:22:57.029Z,6.45
2018-06-11T12:24:01.489Z,7.45
2018-06-11T12:25:05.903Z,7.78
2018-06-11T12:26:10.256Z,6.80
2018-06-11T12:27:14.671Z,7.15
2018-06-11T12:28:18.955Z,7.17
2018-06-11T12:29:23.243Z,7.58
2018-06-11T12:30:27.609Z,7.40
2018-06-11T12:31:32.050Z,6.53
2018-06-11T12:32:36.286Z,6.90
2018-06-11T12:33:40.018Z,8.25
2018-06-11T12:34:44.796Z,7.70
2018-06-11T12:35:49.033Z,8.15
2018-06-11T12:36:53.432Z,8.60
2018-06-11T12:37:57.590Z,8.33
2018-06-11T12:39:02.428Z,7.70
2018-06-11T12:40:08.319Z,7.40
2018-06-11T12:41:12.783Z,7.47
2018-06-11T12:42:17.387Z,6.92
2018-06-11T12:43:22.819Z,7.72
2018-06-11T12:44:27.275Z,7.10
2018-06-11T12:45:40.761Z,6.47
2018-06-11T12:46:48.996Z,6.60
2018-06-11T12:47:53.941Z,5.45
2018-06-11T12:48:58.508Z,5.45
2018-06-11T12:50:03.162Z,6.17
2018-06-11T12:51:08.264Z,5.87
2018-06-11T12:52:11.918Z,6.22
2018-06-11T12:53:16.855Z,6.15
2018-06-11T12:54:21.371Z,5.85
2018-06-11T12:55:25.827Z,7.65
2018-06-11T12:56:30.227Z,6.30
2018-06-11T12:57:34.898Z,6.85
2018-06-11T12:58:39.215Z,7.40
2018-06-11T12:59:43.586Z,6.40
2018-06-11T13:00:48.447Z,7.12
2018-06-11T13:01:52.761Z,6.78
2018-06-11T13:03:03.095Z,6.85
2018-06-11T13:04:07.633Z,6.35
2018-06-11T13:05:12.253Z,5.97
2018-06-11T13:06:17.702Z,5.12
2018-06-11T13:07:21.979Z,12.25
2018-06-11T13:08:26.203Z,8.40
2018-06-11T13:09:30.948Z,6.55
2018-06-11T13:10:35.729Z,6.00
2018-06-11T13:11:40.619Z,37.30
2018-06-11T13:12:46.486Z,12.28
2018-06-11T13:13:50.983Z,7.50
2018-06-11T13:14:55.216Z,6.58
2018-06-11T13:16:01.304Z,6.50
2018-06-11T13:17:05.963Z,5.15
2018-06-11T13:18:10.095Z,5.90
2018-06-11T13:19:14.830Z,5.60
2018-06-11T13:20:20.868Z,5.25
2018-06-11T13:21:26.206Z,4.53
2018-06-11T13:22:31.945Z,4.55
2018-06-11T13:23:36.939Z,4.40
2018-06-11T13:24:41.998Z,5.42
2018-06-11T13:25:47.156Z,5.22
2018-06-11T13:26:52.208Z,5.37
2018-06-11T13:27:57.041Z,5.47
2018-06-11T13:29:02.296Z,6.10
2018-06-11T13:30:07.478Z,5.80
2018-06-11T13:31:12.165Z,6.37
2018-06-11T13:32:18.697Z,6.03
2018-06-11T13:33:24.955Z,5.28
2018-06-11T13:34:29.536Z,5.80
2018-06-11T13:35:34.671Z,5.97
2018-06-11T13:36:39.667Z,5.97
2018-06-11T13:37:44.380Z,5.50
2018-06-11T13:38:48.928Z,6.33
2018-06-11T13:39:52.881Z,5.40
2018-06-11T13:40:58.813Z,5.25
2018-06-11T13:42:05.839Z,6.87
2018-06-11T13:43:10.766Z,8.10
2018-06-11T13:44:14.656Z,8.83
2018-06-11T13:45:18.517Z,6.55
2018-06-11T13:46:23.096Z,6.42
2018-06-11T13:47:27.580Z,5.78
2018-06-11T13:48:32.016Z,6.05
2018-06-11T13:49:36.505Z,6.65
2018-06-11T13:50:45.694Z,6.30
2018-06-11T13:51:50.431Z,7.28
2018-06-11T13:52:54.977Z,6.55
2018-06-11T13:54:08.636Z,5.80
2018-06-11T13:55:15.779Z,6.70
2018-06-11T13:56:22.718Z,7.25
2018-06-11T13:58:42.884Z,6.95
2018-06-11T13:59:49.786Z,7.78
2018-06-11T14:00:54.233Z,6.42
2018-06-11T14:02:03.137Z,5.62
2018-06-11T14:03:16.832Z,7.87
2018-06-11T14:04:23.812Z,7.42
2018-06-11T14:05:44.901Z,6.90
2018-06-11T14:06:51.260Z,5.83
2018-06-11T14:07:58.906Z,5.97
2018-06-11T14:09:04.591Z,6.85
2018-06-11T14:10:10.618Z,6.33
2018-06-11T14:11:15.884Z,6.28